Time;durP1;ratioP1;P1;durP2;ratioP2;P2;SDS_P1;SDS_P2;PMS_P1;PMS_P2;Temp;Humidity;BMP_temperature;BMP_pressure;BME280_temperature;BME280_humidity;BME280_pressure;Samples;Min_cycle;Max_cycle;Signal;HPM_P1;HPM_P2
2023/01/14 00:00:13;;;;;;;1.23;1.13;;;3.40;99.90;3.80;97006.00;;;;5077497;28;21003;-85
2023/01/14 00:03:01;;;;;;;2.03;1.93;;;2.80;99.90;3.70;97005.00;;;;5080953;28;20437;-86
2023/01/14 00:05:58;;;;;;;3.30;2.13;;;2.70;99.90;3.30;97016.00;;;;5089505;28;20445;-86
2023/01/14 00:08:46;;;;;;;3.47;2.20;;;2.60;99.90;3.30;97012.00;;;;5082035;28;20527;-85
2023/01/14 00:14:45;;;;;;;4.90;2.20;;;2.40;99.90;3.30;97008.00;;;;5082861;28;20430;-85
2023/01/14 00:17:33;;;;;;;4.47;2.73;;;2.40;99.90;3.40;97017.00;;;;5089206;28;20449;-86
2023/01/14 00:20:22;;;;;;;2.30;1.93;;;2.30;99.90;3.40;97027.00;;;;5088024;28;20465;-86
2023/01/14 00:23:11;;;;;;;1.93;1.73;;;2.30;99.90;3.20;97033.00;;;;5093229;28;20585;-86
2023/01/14 00:26:06;;;;;;;2.77;2.10;;;3.50;99.90;2.90;97042.00;;;;5091974;28;20818;-87
2023/01/14 00:28:55;;;;;;;6.27;2.27;;;2.20;99.90;3.40;97054.00;;;;5083174;28;20433;-85
2023/01/14 00:31:46;;;;;;;8.07;3.57;;;2.40;99.90;2.80;97048.00;;;;5088786;28;20444;-86
2023/01/14 00:34:36;;;;;;;7.93;3.13;;;2.20;99.90;2.80;97057.00;;;;5088949;28;20432;-86
2023/01/14 00:37:25;;;;;;;4.27;2.40;;;2.10;99.90;2.90;97067.00;;;;5088489;28;20445;-86
2023/01/14 00:40:15;;;;;;;8.60;3.10;;;2.10;99.90;2.60;97047.00;;;;5089081;28;20465;-86
2023/01/14 00:43:04;;;;;;;5.07;2.57;;;2.00;99.90;2.60;97057.00;;;;5089467;28;20519;-86
2023/01/14 00:45:52;;;;;;;5.30;2.77;;;1.90;99.90;2.30;97056.00;;;;5088822;28;20602;-86
2023/01/14 00:48:43;;;;;;;3.33;2.93;;;1.80;99.90;2.40;97065.00;;;;5074044;28;20973;-88
2023/01/14 00:51:33;;;;;;;5.03;3.63;;;1.80;99.90;2.50;97063.00;;;;5085716;28;20421;-85
2023/01/14 00:54:22;;;;;;;6.83;3.10;;;2.20;99.90;3.20;97060.00;;;;5089266;28;20429;-86
2023/01/14 00:57:12;;;;;;;3.73;1.97;;;2.00;99.90;3.10;97067.00;;;;5081652;28;20959;-86
2023/01/14 01:00:00;;;;;;;4.97;2.50;;;2.90;99.90;3.10;97075.00;;;;5087076;28;20986;-86
2023/01/14 01:02:49;;;;;;;1.93;1.77;;;3.00;99.90;3.40;97088.00;;;;5083517;28;20430;-85
2023/01/14 01:05:40;;;;;;;3.97;2.00;;;2.10;99.90;3.40;97081.00;;;;5088679;28;20441;-86
2023/01/14 01:08:29;;;;;;;4.00;2.33;;;2.20;99.90;3.50;97086.00;;;;5090213;28;21806;-85
2023/01/14 01:11:18;;;;;;;2.73;1.87;;;2.40;99.90;3.50;97074.00;;;;5086797;28;20431;-85
2023/01/14 01:14:07;;;;;;;4.87;2.67;;;2.30;99.90;3.40;97079.00;;;;5089125;28;20430;-86
2023/01/14 01:16:56;;;;;;;4.77;2.07;;;2.30;99.90;3.30;97089.00;;;;5092459;28;20452;-86
2023/01/14 01:19:44;;;;;;;3.77;2.23;;;2.60;99.90;3.70;97086.00;;;;5083303;28;20462;-86
2023/01/14 01:22:34;;;;;;;2.43;2.23;;;2.40;99.90;3.60;97096.00;;;;5091659;28;20465;-86
2023/01/14 01:25:23;;;;;;;7.90;1.77;;;2.50;99.90;3.80;97097.00;;;;5092766;28;20433;-86
2023/01/14 01:28:12;;;;;;;3.23;2.20;;;2.50;99.90;3.80;97094.00;;;;5092415;28;20551;-86
2023/01/14 01:31:02;;;;;;;2.13;1.13;;;3.40;99.90;3.70;97100.00;;;;5092524;28;20438;-86
2023/01/14 01:33:51;;;;;;;2.43;1.60;;;2.60;99.90;3.60;97093.00;;;;5074124;28;20413;-85
2023/01/14 01:36:40;;;;;;;2.90;1.67;;;2.50;99.90;3.70;97106.00;;;;5083913;28;20498;-86
2023/01/14 01:39:30;;;;;;;2.83;1.90;;;2.50;99.90;3.80;97120.00;;;;5086089;28;20425;-86
2023/01/14 01:42:23;;;;;;;2.53;1.50;;;2.50;99.90;3.70;97127.00;;;;5090783;28;20423;-86
2023/01/14 01:45:29;;;;;;;2.93;1.70;;;2.50;99.90;3.60;97124.00;;;;5081550;28;20494;-86
2023/01/14 01:48:23;;;;;;;3.37;2.47;;;2.50;99.90;3.40;97131.00;;;;5089578;28;20481;-86
2023/01/14 01:51:18;;;;;;;4.17;1.93;;;2.40;99.90;3.70;97138.00;;;;5092669;28;20425;-86
2023/01/14 01:54:07;;;;;;;2.20;1.67;;;2.40;99.90;3.80;97140.00;;;;5092964;28;20436;-86
2023/01/14 01:56:58;;;;;;;3.60;1.87;;;2.50;99.90;3.80;97145.00;;;;5092010;28;20457;-87
2023/01/14 01:59:52;;;;;;;1.83;1.43;;;2.50;99.90;3.40;97143.00;;;;5085049;28;20457;-86
2023/01/14 02:02:41;;;;;;;1.70;1.13;;;2.50;99.90;3.30;97143.00;;;;5092327;28;20446;-86
2023/01/14 02:05:31;;;;;;;2.40;1.40;;;2.40;99.90;3.40;97154.00;;;;5091652;28;20812;-86
2023/01/14 02:08:20;;;;;;;2.37;1.60;;;2.40;99.90;3.50;97149.00;;;;5087888;28;20521;-86
2023/01/14 02:11:33;;;;;;;4.47;1.93;;;2.40;99.90;3.40;97141.00;;;;5078209;28;20449;-86
2023/01/14 02:14:53;;;;;;;2.57;1.53;;;2.40;99.90;3.30;97129.00;;;;5078613;28;20421;-86
2023/01/14 02:18:04;;;;;;;3.67;2.13;;;2.40;99.90;3.60;97133.00;;;;5091120;28;20862;-86
2023/01/14 02:21:09;;;;;;;2.17;1.97;;;2.40;99.90;3.60;97139.00;;;;5078676;28;20500;-86
2023/01/14 02:24:48;;;;;;;3.27;1.60;;;2.40;99.90;3.40;97120.00;;;;5079516;28;20803;-86
2023/01/14 02:27:49;;;;;;;4.13;1.83;;;2.30;99.90;3.30;97133.00;;;;5087434;28;20821;-85
2023/01/14 02:30:56;;;;;;;1.80;1.47;;;2.50;99.90;3.10;97122.00;;;;5088709;28;20433;-86
2023/01/14 02:33:52;;;;;;;2.20;1.77;;;2.30;99.90;2.70;97136.00;;;;5092019;28;20425;-86
2023/01/14 02:36:49;;;;;;;2.23;1.80;;;2.20;99.90;2.50;97136.00;;;;5089591;28;20471;-86
2023/01/14 02:39:43;;;;;;;1.70;1.60;;;2.10;99.90;2.40;97142.00;;;;5090410;28;20429;-85
2023/01/14 02:45:55;;;;;;;3.27;1.53;;;1.70;99.90;2.60;97139.00;;;;5051541;28;20483;-85
2023/01/14 02:48:46;;;;;;;4.27;1.60;;;2.20;99.90;2.40;97138.00;;;;5086484;28;20437;-86
2023/01/14 02:51:35;;;;;;;2.33;1.90;;;1.80;99.90;2.70;97142.00;;;;5091043;28;20440;-86
2023/01/14 02:54:24;;;;;;;3.17;1.60;;;2.20;99.90;2.70;97145.00;;;;5092342;28;20507;-86
2023/01/14 02:57:20;;;;;;;1.40;1.30;;;1.90;99.90;2.70;97133.00;;;;5083727;28;20438;-86
2023/01/14 03:00:17;;;;;;;2.70;1.77;;;1.70;99.90;2.50;97122.00;;;;5089946;28;20442;-86
2023/01/14 03:03:25;;;;;;;2.27;1.70;;;1.60;99.90;2.70;97123.00;;;;5085282;28;20961;-86
2023/01/14 03:06:26;;;;;;;8.10;1.57;;;1.70;99.90;2.20;97134.00;;;;5078349;28;20518;-86
2023/01/14 03:09:28;;;;;;;2.87;2.00;;;1.90;99.90;2.40;97140.00;;;;5088878;28;20793;-87
2023/01/14 03:12:26;;;;;;;2.17;1.93;;;1.50;99.90;2.50;97126.00;;;;5089800;28;20831;-86
2023/01/14 03:15:24;;;;;;;5.40;2.10;;;1.40;99.90;2.20;97126.00;;;;5081274;28;20505;-86
2023/01/14 03:18:21;;;;;;;1.57;1.47;;;1.40;99.90;1.80;97140.00;;;;5082350;28;20567;-86
2023/01/14 03:21:15;;;;;;;1.77;1.67;;;1.40;99.90;1.80;97137.00;;;;5086156;28;20469;-87
2023/01/14 03:24:10;;;;;;;1.77;1.67;;;1.80;99.90;2.00;97139.00;;;;5080924;28;20452;-86
2023/01/14 03:27:06;;;;;;;2.10;1.40;;;1.20;99.90;2.00;97135.00;;;;5082432;28;20453;-86
2023/01/14 03:30:01;;;;;;;6.03;1.90;;;1.50;99.90;1.40;97138.00;;;;5085098;28;20418;-86
2023/01/14 03:32:55;;;;;;;4.30;1.50;;;1.70;99.90;1.40;97135.00;;;;5090946;28;20417;-86
2023/01/14 03:35:47;;;;;;;1.83;1.37;;;0.90;99.90;1.80;97147.00;;;;5088630;28;20478;-87
2023/01/14 03:38:42;;;;;;;2.20;1.47;;;1.10;99.90;2.10;97162.00;;;;5087803;28;20429;-86
2023/01/14 03:44:46;;;;;;;6.33;1.90;;;1.10;99.90;1.60;97158.00;;;;5088039;28;20426;-86
2023/01/14 03:47:37;;;;;;;1.90;1.73;;;1.50;99.90;1.30;97147.00;;;;5079204;28;20463;-86
2023/01/14 03:50:33;;;;;;;3.27;1.90;;;0.70;99.90;1.40;97151.00;;;;5087060;28;20984;-86
2023/01/14 03:53:29;;;;;;;1.80;1.50;;;0.70;99.90;1.90;97169.00;;;;5088495;28;20430;-86
2023/01/14 03:56:25;;;;;;;2.07;1.53;;;0.80;99.90;2.10;97179.00;;;;5087122;28;20446;-86
2023/01/14 03:59:19;;;;;;;2.80;1.10;;;2.50;99.90;2.20;97174.00;;;;5084532;28;20421;-87
2023/01/14 04:02:11;;;;;;;2.53;1.43;;;1.40;99.90;1.90;97177.00;;;;5090095;28;20465;-86
2023/01/14 04:05:01;;;;;;;1.77;1.63;;;1.00;99.90;1.90;97187.00;;;;5090648;28;20459;-87
2023/01/14 04:07:52;;;;;;;1.33;1.17;;;1.40;99.90;1.90;97186.00;;;;5088648;28;20454;-86
2023/01/14 04:10:42;;;;;;;3.50;1.30;;;1.10;99.90;1.80;97192.00;;;;5089887;28;20803;-87
2023/01/14 04:16:37;;;;;;;1.30;1.00;;;0.90;99.90;1.50;97176.00;;;;5080141;28;20492;-86
2023/01/14 04:19:26;;;;;;;1.83;1.60;;;0.80;99.90;1.60;97186.00;;;;5088861;28;20486;-86
2023/01/14 04:22:14;;;;;;;3.30;1.67;;;1.10;99.90;1.70;97182.00;;;;5089412;28;20469;-87
2023/01/14 04:25:03;;;;;;;2.10;1.67;;;1.30;99.90;1.50;97186.00;;;;5090279;28;20438;-86
2023/01/14 04:27:54;;;;;;;1.27;1.17;;;0.70;99.90;1.30;97193.00;;;;5082932;28;20429;-86
2023/01/14 04:30:42;;;;;;;3.97;1.40;;;0.90;99.90;1.40;97178.00;;;;5089331;28;20438;-86
2023/01/14 04:33:31;;;;;;;2.77;1.93;;;0.50;99.90;1.10;97182.00;;;;5079751;28;20429;-86
2023/01/14 04:36:20;;;;;;;1.77;1.57;;;0.40;99.90;1.20;97183.00;;;;5088112;28;20461;-86
2023/01/14 04:39:08;;;;;;;2.47;1.80;;;0.90;99.90;1.10;97200.00;;;;5089621;28;20969;-86
2023/01/14 04:45:17;;;;;;;3.10;1.90;;;0.80;99.90;1.00;97194.00;;;;5016161;28;20431;-87
2023/01/14 04:48:06;;;;;;;2.13;1.60;;;0.10;99.90;1.20;97196.00;;;;5086634;28;20464;-86
2023/01/14 04:50:54;;;;;;;1.27;1.17;;;0.10;99.90;1.00;97194.00;;;;5089787;28;20444;-86
2023/01/14 04:53:43;;;;;;;2.03;1.20;;;0.50;99.90;0.90;97193.00;;;;5090234;28;20467;-86
2023/01/14 04:56:32;;;;;;;0.93;0.93;;;0.10;99.90;0.30;97182.00;;;;5087588;28;20489;-86
2023/01/14 04:59:21;;;;;;;1.50;1.40;;;0.50;99.90;0.70;97180.00;;;;5084640;28;20418;-86
2023/01/14 05:02:11;;;;;;;1.43;1.13;;;0.30;99.90;0.90;97186.00;;;;5086487;28;20485;-87
2023/01/14 05:05:00;;;;;;;3.23;1.33;;;1.30;99.90;0.90;97183.00;;;;5087653;28;20433;-86
2023/01/14 05:07:48;;;;;;;1.57;1.23;;;1.80;99.90;1.00;97196.00;;;;5089553;28;20511;-87
2023/01/14 05:10:38;;;;;;;2.50;1.17;;;0.20;99.90;1.00;97188.00;;;;5089334;28;20421;-87
2023/01/14 05:13:26;;;;;;;0.93;0.93;;;0.00;99.90;0.80;97196.00;;;;5083728;28;20448;-86
2023/01/14 05:16:17;;;;;;;1.77;1.13;;;0.70;99.90;0.80;97203.00;;;;5088263;28;20880;-87
2023/01/14 05:19:07;;;;;;;2.30;1.37;;;1.60;99.90;0.90;97204.00;;;;5088766;28;20491;-86
2023/01/14 05:21:55;;;;;;;1.73;1.37;;;1.00;99.90;0.80;97195.00;;;;5088386;28;20465;-87
2023/01/14 05:24:44;;;;;;;0.73;0.73;;;-0.10;99.90;-0.10;97183.00;;;;5087549;28;20429;-86
2023/01/14 05:27:34;;;;;;;1.53;1.37;;;1.40;99.90;0.10;97184.00;;;;5087306;28;20441;-85
2023/01/14 05:30:23;;;;;;;1.40;1.30;;;0.50;99.90;0.20;97192.00;;;;5090070;28;20438;-86
2023/01/14 05:33:12;;;;;;;0.93;0.93;;;0.90;99.90;0.00;97195.00;;;;5088812;28;20461;-86
2023/01/14 05:36:02;;;;;;;1.00;0.97;;;-0.40;99.90;0.10;97195.00;;;;5082159;28;20457;-86
2023/01/14 05:38:51;;;;;;;2.23;1.80;;;0.20;99.90;0.60;97203.00;;;;5076694;28;20426;-87
2023/01/14 05:45:37;;;;;;;1.90;1.57;;;-0.40;99.90;0.90;97212.00;;;;5090068;28;20582;-86
2023/01/14 05:47:55;;;;;;;1.83;1.13;;;0.90;99.90;0.60;97207.00;;;;5084974;28;20454;-86
2023/01/14 05:50:44;;;;;;;1.43;0.90;;;0.70;99.90;0.30;97217.00;;;;5086977;28;20479;-87
2023/01/14 05:53:35;;;;;;;2.43;1.20;;;0.70;99.90;0.50;97214.00;;;;5087251;28;20430;-87
2023/01/14 05:56:23;;;;;;;0.80;0.67;;;-0.30;99.90;0.30;97216.00;;;;5092662;28;20441;-86
2023/01/14 05:59:12;;;;;;;1.90;1.50;;;0.70;99.90;0.30;97217.00;;;;5086093;28;20425;-86
2023/01/14 06:08:14;;;;;;;0.80;0.80;;;-0.30;99.90;0.40;97215.00;;;;5081569;28;20456;-87
2023/01/14 06:11:07;;;;;;;1.70;1.17;;;0.20;99.90;-0.20;97218.00;;;;5091518;28;20422;-86
2023/01/14 06:13:57;;;;;;;2.80;1.63;;;-0.50;99.90;0.20;97205.00;;;;5092939;28;20423;-86
2023/01/14 06:16:51;;;;;;;1.03;0.93;;;-0.50;99.90;0.60;97204.00;;;;5091024;28;20449;-86
2023/01/14 06:19:40;;;;;;;1.97;1.03;;;-0.20;99.90;0.70;97204.00;;;;5091265;27;20434;-87
2023/01/14 06:22:29;;;;;;;1.63;1.23;;;-0.30;99.90;0.60;97203.00;;;;5091820;28;20461;-86
2023/01/14 06:25:18;;;;;;;1.43;1.33;;;-0.30;99.90;0.50;97205.00;;;;5091517;28;20422;-86
2023/01/14 06:28:08;;;;;;;1.70;1.40;;;-0.20;99.90;0.20;97201.00;;;;5088360;28;20507;-87
2023/01/14 06:30:57;;;;;;;2.07;1.90;;;0.60;99.90;0.60;97203.00;;;;5076135;28;20811;-87
2023/01/14 06:33:47;;;;;;;0.90;0.90;;;-0.30;99.90;0.60;97197.00;;;;5085099;28;20434;-87
2023/01/14 06:36:37;;;;;;;2.10;1.63;;;-0.30;99.90;0.60;97217.00;;;;5086404;28;20486;-87
2023/01/14 06:39:26;;;;;;;1.53;1.30;;;-0.30;99.90;0.60;97212.00;;;;5090845;28;20430;-87
2023/01/14 06:42:17;;;;;;;1.47;1.00;;;0.40;99.90;0.60;97216.00;;;;5089352;28;20469;-87
2023/01/14 06:45:08;;;;;;;1.50;1.30;;;-0.40;99.90;0.60;97231.00;;;;5086947;28;20491;-86
2023/01/14 06:47:57;;;;;;;1.90;0.97;;;-0.40;99.90;0.60;97220.00;;;;5089589;28;20464;-87
2023/01/14 06:50:46;;;;;;;1.37;1.27;;;-0.40;99.90;0.40;97225.00;;;;5083032;28;20426;-87
2023/01/14 06:53:35;;;;;;;2.93;2.17;;;-0.40;99.90;0.40;97230.00;;;;5084873;28;20423;-87
2023/01/14 06:56:24;;;;;;;2.97;2.20;;;-0.40;99.90;0.40;97224.00;;;;5080979;28;20459;-87
2023/01/14 06:59:12;;;;;;;3.03;2.83;;;-0.40;99.90;0.30;97221.00;;;;5084583;28;20436;-87
2023/01/14 07:02:03;;;;;;;1.93;1.83;;;-0.50;99.90;0.40;97233.00;;;;5084066;28;20427;-86
2023/01/14 07:04:52;;;;;;;3.27;1.90;;;-0.40;99.90;0.50;97241.00;;;;5084675;28;20426;-86
2023/01/14 07:07:40;;;;;;;4.07;2.30;;;-0.40;99.90;0.60;97241.00;;;;5082729;28;20959;-86
2023/01/14 07:10:29;;;;;;;1.80;1.70;;;1.80;99.90;0.70;97244.00;;;;5084774;28;20421;-87
2023/01/14 07:13:19;;;;;;;2.40;2.20;;;-0.20;99.90;0.10;97243.00;;;;5089801;28;20421;-86
2023/01/14 07:16:08;;;;;;;1.30;1.00;;;0.60;99.90;0.10;97256.00;;;;5089029;28;20433;-86
2023/01/14 07:18:58;;;;;;;1.60;1.43;;;-0.30;99.90;-0.10;97234.00;;;;5086526;28;20812;-88
2023/01/14 07:21:47;;;;;;;1.17;1.07;;;-0.30;99.90;-0.50;97234.00;;;;5083106;28;20433;-85
2023/01/14 07:24:37;;;;;;;1.33;1.13;;;0.60;99.90;-0.20;97235.00;;;;5082711;28;20963;-87
2023/01/14 07:27:26;;;;;;;6.67;1.97;;;0.40;99.90;0.20;97254.00;;;;5083748;28;20454;-86
2023/01/14 07:30:15;;;;;;;2.80;2.07;;;0.20;99.90;0.60;97254.00;;;;5088492;28;20441;-86
2023/01/14 07:33:04;;;;;;;2.00;1.27;;;-0.40;99.90;0.60;97259.00;;;;5087630;28;20418;-86
2023/01/14 07:35:57;;;;;;;1.67;1.57;;;-0.30;99.90;0.70;97263.00;;;;5086047;28;20432;-86
2023/01/14 07:38:45;;;;;;;1.83;1.70;;;1.50;99.90;0.80;97278.00;;;;5087086;28;20936;-87
2023/01/14 07:41:34;;;;;;;2.00;1.90;;;0.60;99.90;0.50;97270.00;;;;5079385;28;20444;-86
2023/01/14 07:44:25;;;;;;;1.27;0.93;;;0.80;99.90;0.40;97262.00;;;;5089793;28;20477;-87
2023/01/14 07:47:16;;;;;;;1.60;1.50;;;0.10;99.90;0.90;97258.00;;;;5090432;27;20464;-86
2023/01/14 07:50:06;;;;;;;0.90;0.90;;;1.00;99.90;0.30;97253.00;;;;5088852;28;20473;-88
2023/01/14 07:52:59;;;;;;;1.10;1.03;;;-0.70;99.90;0.30;97253.00;;;;5081497;28;20429;-88
2023/01/14 07:55:48;;;;;;;2.60;1.23;;;1.50;99.90;1.00;97275.00;;;;5080865;28;20433;-87
2023/01/14 07:58:37;;;;;;;2.00;1.80;;;0.50;99.90;1.10;97259.00;;;;5088031;28;20503;-87
2023/01/14 08:01:27;;;;;;;3.30;3.00;;;2.10;99.90;0.60;97247.00;;;;5087818;28;20390;-86
2023/01/14 08:04:19;;;;;;;1.30;1.13;;;-0.40;99.90;0.70;97247.00;;;;5089170;28;20783;-87
2023/01/14 08:07:10;;;;;;;2.83;2.55;;;0.00;99.90;1.00;97252.00;;;;5074865;28;20875;-87
2023/01/14 08:10:00;;;;;;;1.77;1.60;;;1.80;99.90;1.20;97255.00;;;;5087745;28;20455;-86
2023/01/14 08:12:49;;;;;;;2.40;2.10;;;0.80;99.90;1.50;97262.00;;;;5089630;28;20487;-86
2023/01/14 08:15:38;;;;;;;3.53;2.00;;;1.00;99.90;1.90;97272.00;;;;5089845;28;20880;-87
2023/01/14 08:18:31;;;;;;;3.67;1.90;;;0.50;99.90;2.00;97268.00;;;;5076107;28;20938;-87
2023/01/14 08:21:20;;;;;;;2.80;1.70;;;0.90;99.90;1.60;97259.00;;;;5088094;28;20426;-87
2023/01/14 08:24:08;;;;;;;2.33;1.43;;;0.70;99.90;1.50;97265.00;;;;5083361;28;20465;-87
2023/01/14 08:26:59;;;;;;;2.80;2.30;;;0.70;99.90;1.70;97267.00;;;;5083065;28;21106;-87
2023/01/14 08:29:50;;;;;;;3.90;2.73;;;0.70;99.90;1.90;97276.00;;;;5080942;28;20945;-87
2023/01/14 08:32:39;;;;;;;2.63;2.43;;;0.80;99.90;1.60;97267.00;;;;5079862;28;20445;-87
2023/01/14 08:35:28;;;;;;;2.20;1.97;;;0.80;99.90;1.40;97270.00;;;;5078441;28;20445;-89
2023/01/14 08:38:16;;;;;;;2.60;1.60;;;1.10;99.90;0.70;97264.00;;;;5080663;28;20457;-89
2023/01/14 08:41:10;;;;;;;3.07;2.20;;;1.70;99.90;0.70;97248.00;;;;5075392;28;20418;-90
2023/01/14 08:44:00;;;;;;;2.00;1.90;;;0.50;99.90;1.00;97266.00;;;;5080343;28;20460;-88
2023/01/14 08:46:49;;;;;;;1.67;1.57;;;0.90;99.90;1.40;97275.00;;;;5083842;28;20429;-87
2023/01/14 08:49:38;;;;;;;1.10;0.83;;;0.50;99.90;1.50;97278.00;;;;5081932;28;20424;-87
2023/01/14 08:52:26;;;;;;;2.63;1.90;;;0.50;99.90;1.40;97284.00;;;;5073343;28;20448;-86
2023/01/14 08:55:15;;;;;;;1.63;0.73;;;0.70;99.90;2.00;97285.00;;;;5078353;28;20446;-88
2023/01/14 08:58:06;;;;;;;4.27;1.87;;;0.80;99.90;2.20;97303.00;;;;5082263;28;20822;-87
2023/01/14 09:00:58;;;;;;;0.90;0.90;;;1.00;99.90;2.20;97306.00;;;;5081032;28;20441;-88
2023/01/14 09:03:47;;;;;;;1.47;1.37;;;1.80;99.90;2.20;97305.00;;;;5080999;28;20461;-88
2023/01/14 09:17:04;;;;;;;2.50;1.10;;;1.90;99.90;2.60;97302.00;;;;5070776;28;20485;-87
2023/01/14 09:19:09;;;;;;;5.53;1.60;;;1.80;99.90;3.40;97299.00;;;;5081284;28;20467;-87
2023/01/14 09:21:59;;;;;;;2.63;1.70;;;2.00;99.90;3.20;97297.00;;;;5078457;28;20774;-90
2023/01/14 09:24:48;;;;;;;1.30;1.20;;;2.20;99.90;2.60;97288.00;;;;5076433;28;20538;-88
2023/01/14 09:27:37;;;;;;;1.27;1.17;;;2.10;99.90;2.60;97307.00;;;;5077559;28;20531;-88
2023/01/14 09:30:26;;;;;;;2.40;1.60;;;2.30;99.90;3.30;97312.00;;;;5089002;28;20429;-87
2023/01/14 09:33:16;;;;;;;1.93;1.70;;;2.20;99.90;4.00;97302.00;;;;5084457;28;21045;-88
2023/01/14 09:36:06;;;;;;;4.10;2.47;;;2.30;99.90;4.30;97284.00;;;;5084499;28;20461;-87
2023/01/14 09:38:55;;;;;;;1.23;1.20;;;2.50;99.90;3.70;97269.00;;;;5082758;28;20431;-88
2023/01/14 09:41:52;;;;;;;2.13;1.73;;;3.00;99.90;4.30;97278.00;;;;5084180;28;20450;-87
2023/01/14 09:44:42;;;;;;;2.63;1.90;;;2.80;99.90;4.40;97271.00;;;;5084900;28;20472;-87
2023/01/14 09:47:30;;;;;;;6.27;2.13;;;3.00;99.90;4.50;97272.00;;;;5085349;28;20445;-88
2023/01/14 09:50:39;;;;;;;5.73;2.10;;;3.10;99.90;4.70;97280.00;;;;5081334;28;20425;-88
2023/01/14 09:53:58;;;;;;;3.30;2.93;;;3.30;99.90;5.50;97277.00;;;;5086230;28;20433;-88
2023/01/14 09:56:54;;;;;;;4.10;2.77;;;3.50;99.90;4.90;97265.00;;;;5086507;28;20474;-88
2023/01/14 09:59:50;;;;;;;3.47;2.40;;;3.70;99.90;4.90;97272.00;;;;5084377;28;20210;-88
2023/01/14 10:02:46;;;;;;;2.47;1.73;;;3.80;99.90;5.30;97267.00;;;;5081405;28;20206;-88
2023/01/14 10:05:40;;;;;;;3.78;3.00;;;3.70;99.90;5.60;97267.00;;;;5083153;28;20402;-88
2023/01/14 10:08:36;;;;;;;3.47;2.43;;;2.90;99.90;6.20;97279.00;;;;5086446;28;20203;-88
2023/01/14 10:11:30;;;;;;;5.00;2.23;;;4.70;99.90;6.30;97263.00;;;;5082990;28;20257;-88
2023/01/14 10:14:23;;;;;;;4.20;2.20;;;4.50;99.90;6.70;97256.00;;;;5089533;28;21164;-88
2023/01/14 10:17:17;;;;;;;5.65;3.30;;;5.00;99.90;7.10;97264.00;;;;5088433;28;20405;-88
2023/01/14 10:20:15;;;;;;;4.07;2.90;;;5.20;99.90;7.60;97258.00;;;;5083352;28;20199;-88
2023/01/14 10:23:13;;;;;;;2.80;2.60;;;5.60;99.90;7.70;97255.00;;;;5082699;28;20872;-88
2023/01/14 10:26:03;;;;;;;4.53;2.10;;;5.90;99.90;8.00;97242.00;;;;5087132;28;20213;-88
2023/01/14 10:28:54;;;;;;;4.40;2.60;;;6.10;99.90;8.00;97247.00;;;;5086022;28;20203;-88
2023/01/14 10:31:48;;;;;;;4.00;2.60;;;6.40;99.90;8.70;97242.00;;;;5083734;28;20202;-88
2023/01/14 10:34:41;;;;;;;4.07;3.03;;;6.70;99.90;9.60;97246.00;;;;5079693;28;20210;-88
2023/01/14 10:37:30;;;;;;;5.00;3.07;;;7.60;99.90;10.80;97249.00;;;;5082523;28;20224;-89
2023/01/14 10:40:25;;;;;;;4.07;2.67;;;9.00;99.90;11.50;97237.00;;;;5084896;28;20865;-88
2023/01/14 10:43:29;;;;;;;7.40;3.30;;;10.50;99.90;12.40;97252.00;;;;5084532;28;20230;-88
2023/01/14 10:46:21;;;;;;;6.47;2.73;;;11.80;99.90;12.50;97247.00;;;;5081981;28;20726;-88
2023/01/14 10:49:21;;;;;;;4.23;2.20;;;13.00;99.00;12.80;97258.00;;;;5088446;28;20210;-88
2023/01/14 10:52:25;;;;;;;4.83;2.93;;;13.70;95.90;13.70;97261.00;;;;5086225;28;20281;-89
2023/01/14 10:55:17;;;;;;;5.53;3.10;;;14.40;92.50;14.50;97262.00;;;;5085596;28;20203;-88
2023/01/14 10:58:15;;;;;;;4.47;2.67;;;14.90;90.60;15.10;97259.00;;;;5084413;28;20254;-88
2023/01/14 11:01:10;;;;;;;2.93;2.30;;;15.50;89.40;15.40;97245.00;;;;5083083;28;20684;-88
2023/01/14 11:03:59;;;;;;;8.70;2.60;;;16.10;84.30;15.20;97253.00;;;;5085641;28;20549;-88
2023/01/14 11:06:48;;;;;;;3.30;2.50;;;16.40;78.90;15.00;97244.00;;;;5085385;28;20266;-88
2023/01/14 11:09:37;;;;;;;5.97;3.00;;;16.40;75.60;15.40;97241.00;;;;5085647;28;20206;-89
2023/01/14 11:12:28;;;;;;;9.77;3.03;;;16.60;76.20;16.20;97240.00;;;;5081545;28;20210;-88
2023/01/14 11:15:41;;;;;;;4.50;2.23;;;16.80;75.30;16.70;97238.00;;;;5081585;28;20621;-89
2023/01/14 11:18:33;;;;;;;4.03;1.80;;;17.30;73.80;17.10;97220.00;;;;5081319;28;20200;-88
2023/01/14 11:21:23;;;;;;;4.70;1.93;;;17.70;68.20;16.80;97224.00;;;;5081270;28;20207;-89
2023/01/14 11:24:30;;;;;;;2.00;1.60;;;18.00;65.40;16.20;97211.00;;;;5088844;28;20227;-88
2023/01/14 11:27:22;;;;;;;1.80;1.40;;;17.90;57.60;15.30;97208.00;;;;5086029;28;20230;-88
2023/01/14 11:30:19;;;;;;;2.47;1.87;;;17.20;59.80;15.20;97211.00;;;;5089751;28;20192;-88
2023/01/14 11:33:20;;;;;;;4.50;2.20;;;16.90;59.60;16.50;97205.00;;;;5089173;28;20219;-89
2023/01/14 11:36:32;;;;;;;1.20;0.83;;;16.70;62.20;16.80;97193.00;;;;5086723;28;20219;-90
2023/01/14 11:39:22;;;;;;;1.23;1.10;;;16.90;56.30;16.50;97194.00;;;;5082851;28;20215;-88
2023/01/14 11:42:32;;;;;;;3.47;1.30;;;17.20;54.90;16.60;97182.00;;;;5079829;28;20567;-89
2023/01/14 11:45:22;;;;;;;1.33;0.80;;;17.20;55.30;16.60;97178.00;;;;5087716;28;20605;-90
2023/01/14 11:48:29;;;;;;;1.07;0.87;;;17.20;53.50;17.40;97176.00;;;;5087484;28;20221;-90
2023/01/14 11:51:21;;;;;;;1.73;1.23;;;17.10;54.70;17.40;97170.00;;;;5096402;28;20238;-87
2023/01/14 11:54:18;;;;;;;1.30;1.20;;;17.20;54.40;15.60;97157.00;;;;5088270;28;20202;-88
2023/01/14 11:57:15;;;;;;;3.50;1.83;;;16.90;53.50;16.40;97160.00;;;;5080011;28;20315;-87
2023/01/14 12:00:05;;;;;;;1.37;1.20;;;16.50;53.30;15.30;97166.00;;;;5089842;28;20221;-88
2023/01/14 12:03:01;;;;;;;1.93;1.60;;;16.20;53.20;14.80;97177.00;;;;5085044;28;20211;-89
2023/01/14 12:05:55;;;;;;;2.90;1.30;;;15.50;54.30;15.50;97173.00;;;;5090169;28;20227;-87
2023/01/14 12:08:50;;;;;;;2.00;1.80;;;15.10;55.30;16.60;97174.00;;;;5077459;28;20195;-88
2023/01/14 12:11:53;;;;;;;3.57;1.83;;;15.10;56.30;17.90;97175.00;;;;5091995;28;20207;-88
2023/01/14 12:17:56;;;;;;;2.07;1.20;;;16.10;57.50;18.40;97172.00;;;;5088465;28;20223;-87
2023/01/14 12:20:45;;;;;;;2.13;1.37;;;16.40;55.70;17.50;97167.00;;;;5093401;28;20571;-88
2023/01/14 12:23:46;;;;;;;2.13;1.07;;;16.70;55.00;17.40;97164.00;;;;5093868;28;20191;-88
2023/01/14 12:26:42;;;;;;;2.40;1.40;;;16.40;53.90;17.30;97161.00;;;;5081545;28;20268;-87
2023/01/14 12:29:39;;;;;;;3.10;1.17;;;16.60;55.00;18.40;97159.00;;;;5083461;28;20231;-88
2023/01/14 12:32:29;;;;;;;1.57;0.90;;;16.70;55.10;18.00;97156.00;;;;5079961;28;20273;-87
2023/01/14 12:35:20;;;;;;;1.40;0.73;;;16.80;53.70;18.10;97156.00;;;;5079881;28;20219;-87
2023/01/14 12:47:53;;;;;;;4.43;3.17;;;18.10;51.70;19.40;97140.00;;;;5079208;28;20240;-88
2023/01/14 12:50:51;;;;;;;2.90;1.20;;;18.20;50.50;18.50;97139.00;;;;5086599;28;20210;-88
2023/01/14 12:53:47;;;;;;;1.23;0.77;;;18.10;48.70;19.50;97143.00;;;;5085092;28;20681;-88
2023/01/14 12:56:43;;;;;;;2.43;0.83;;;18.10;48.80;17.90;97124.00;;;;5080503;28;20241;-88
2023/01/14 12:59:34;;;;;;;1.63;0.50;;;17.90;47.70;19.30;97124.00;;;;5082710;28;20196;-88
2023/01/14 13:02:34;;;;;;;1.50;0.90;;;17.90;49.00;18.50;97113.00;;;;5078640;28;20214;-88
2023/01/14 13:05:28;;;;;;;0.50;0.30;;;17.90;48.90;18.90;97111.00;;;;5087137;28;20230;-88
2023/01/14 13:08:25;;;;;;;1.83;0.80;;;18.20;48.60;17.10;97114.00;;;;5085611;28;20226;-88
2023/01/14 13:11:22;;;;;;;1.40;0.83;;;17.80;47.50;19.30;97118.00;;;;5085181;28;20195;-89
2023/01/14 13:14:33;;;;;;;1.17;0.77;;;17.80;49.10;20.10;97119.00;;;;5081275;28;20198;-88
2023/01/14 13:17:32;;;;;;;0.93;0.60;;;18.10;48.10;19.80;97111.00;;;;5083577;28;20235;-88
2023/01/14 13:20:49;;;;;;;2.00;1.00;;;18.20;47.70;20.40;97121.00;;;;5085662;28;20196;-88
2023/01/14 13:24:04;;;;;;;0.83;0.60;;;18.50;47.90;20.00;97110.00;;;;5084214;28;20223;-88
2023/01/14 13:26:57;;;;;;;1.77;1.00;;;18.80;46.50;19.10;97109.00;;;;5078978;28;20229;-88
2023/01/14 13:29:47;;;;;;;1.07;0.53;;;19.00;46.40;20.00;97121.00;;;;5084495;28;20204;-88
2023/01/14 13:32:54;;;;;;;1.60;0.63;;;19.00;46.80;20.20;97114.00;;;;5084345;28;20756;-88
2023/01/14 13:35:42;;;;;;;1.40;0.80;;;19.00;47.20;20.60;97105.00;;;;5085265;28;20266;-87
2023/01/14 13:38:32;;;;;;;2.50;0.73;;;19.00;47.20;20.30;97116.00;;;;5084957;27;20240;-88
2023/01/14 13:41:42;;;;;;;0.90;0.50;;;19.20;46.70;20.30;97116.00;;;;5078970;28;20569;-88
2023/01/14 13:44:33;;;;;;;1.17;0.80;;;19.20;46.80;20.00;97121.00;;;;5082479;28;20225;-88
2023/01/14 13:47:33;;;;;;;1.17;0.50;;;19.00;46.20;19.60;97127.00;;;;5081090;28;20303;-88